Time,TemperatureF,DewpointF,PressureIn,WindDirection,WindDirectionDegrees,WindSpeedMPH,WindSpeedGustMPH,Humidity,HourlyPrecipIn,Conditions,Clouds,dailyrainin,SoftwareType,DateUTC
2013-06-03 00:05:00,55.8,31.2,29.77,North,0,0.0,0.0,39,0.00,,---,0.00,VWS V14.01,2013-06-03 07:05:00,
2013-06-03 00:10:00,55.4,30.9,29.77,North,0,0.0,0.0,39,0.00,,---,0.00,VWS V14.01,2013-06-03 07:10:00,
2013-06-03 00:17:00,55.2,30.7,29.74,North,0,0.0,0.0,39,0.00,,---,0.00,VWS V14.01,2013-06-03 07:17:00,
2013-06-03 00:22:00,55.0,30.5,29.74,North,0,0.0,0.0,39,0.00,,---,0.00,VWS V14.01,2013-06-03 07:22:00,
2013-06-03 00:28:00,55.2,30.1,29.74,North,0,0.0,0.0,38,0.00,,---,0.00,VWS V14.01,2013-06-03 07:28:00,
2013-06-03 00:34:00,55.4,28.9,29.77,North,0,0.0,0.0,36,0.00,,---,0.00,VWS V14.01,2013-06-03 07:34:00,
2013-06-03 00:40:00,55.9,29.4,29.77,North,0,0.0,0.0,36,0.00,,---,0.00,VWS V14.01,2013-06-03 07:40:00,
2013-06-03 00:46:00,55.9,29.4,29.77,North,0,0.0,0.0,36,0.00,,---,0.00,VWS V14.01,2013-06-03 07:46:00,
2013-06-03 00:51:00,55.9,29.4,29.77,North,0,0.0,0.0,36,0.00,,---,0.00,VWS V14.01,2013-06-03 07:51:00,
2013-06-03 00:56:00,55.8,29.2,29.77,North,0,0.0,0.0,36,0.00,,---,0.00,VWS V14.01,2013-06-03 07:56:00,
2013-06-03 01:01:00,55.6,29.1,29.77,North,0,0.0,0.0,36,0.00,,---,0.00,VWS V14.01,2013-06-03 08:01:00,
2013-06-03 01:06:00,55.6,29.7,29.77,North,0,0.0,0.0,37,0.00,,---,0.00,VWS V14.01,2013-06-03 08:06:00,
2013-06-03 01:12:00,55.6,29.1,29.77,North,0,0.0,0.0,36,0.00,,---,0.00,VWS V14.01,2013-06-03 08:12:00,
2013-06-03 01:18:00,55.8,29.2,29.77,North,0,0.0,0.0,36,0.00,,---,0.00,VWS V14.01,2013-06-03 08:18:00,
2013-06-03 01:24:00,55.6,29.7,29.77,North,0,0.0,0.0,37,0.00,,---,0.00,VWS V14.01,2013-06-03 08:24:00,
2013-06-03 01:29:00,55.2,29.4,29.77,North,0,0.0,0.0,37,0.00,,---,0.00,VWS V14.01,2013-06-03 08:29:00,
2013-06-03 01:34:00,55.0,29.9,29.77,North,0,0.0,0.0,38,0.00,,---,0.00,VWS V14.01,2013-06-03 08:34:00,
2013-06-03 01:40:00,54.7,29.6,29.77,North,0,0.0,0.0,38,0.00,,---,0.00,VWS V14.01,2013-06-03 08:40:00,
2013-06-03 01:45:00,54.3,29.9,29.77,North,0,0.0,0.0,39,0.00,,---,0.00,VWS V14.01,2013-06-03 08:45:00,
2013-06-03 01:51:00,54.0,30.2,29.77,North,0,0.0,0.0,40,0.00,,---,0.00,VWS V14.01,2013-06-03 08:51:00,
2013-06-03 01:57:00,53.8,31.2,29.77,North,0,0.0,0.0,42,0.00,,---,0.00,VWS V14.01,2013-06-03 08:57:00,
2013-06-03 02:03:00,54.0,31.4,29.77,North,0,0.0,0.0,42,0.00,,---,0.00,VWS V14.01,2013-06-03 09:03:00,
2013-06-03 02:09:00,54.0,30.8,29.77,North,0,0.0,0.0,41,0.00,,---,0.00,VWS V14.01,2013-06-03 09:09:00,
2013-06-03 02:14:00,54.0,30.8,29.77,North,0,0.0,0.0,41,0.00,,---,0.00,VWS V14.01,2013-06-03 09:14:00,
2013-06-03 02:19:00,53.8,30.0,29.77,North,0,0.0,0.0,40,0.00,,---,0.00,VWS V14.01,2013-06-03 09:19:00,
2013-06-03 02:25:00,53.6,30.5,29.77,North,0,0.0,0.0,41,0.00,,---,0.00,VWS V14.01,2013-06-03 09:25:00,
2013-06-03 02:31:00,53.4,30.9,29.77,North,0,0.0,0.0,42,0.00,,---,0.00,VWS V14.01,2013-06-03 09:31:00,
2013-06-03 02:37:00,53.1,31.2,29.77,North,0,0.0,0.0,43,0.00,,---,0.00,VWS V14.01,2013-06-03 09:37:00,
2013-06-03 02:42:00,52.9,31.0,29.77,North,0,0.0,0.0,43,0.00,,---,0.00,VWS V14.01,2013-06-03 09:42:00,
2013-06-03 02:48:00,52.7,32.0,29.77,North,0,0.0,0.0,45,0.00,,---,0.00,VWS V14.01,2013-06-03 09:48:00,
2013-06-03 02:54:00,52.5,31.8,29.77,North,0,0.0,0.0,45,0.00,,---,0.00,VWS V14.01,2013-06-03 09:54:00,
2013-06-03 03:00:00,52.2,32.0,29.77,North,0,0.0,0.0,46,0.00,,---,0.00,VWS V14.01,2013-06-03 10:00:00,
2013-06-03 03:05:00,52.2,32.6,29.77,North,0,0.0,0.0,47,0.00,,---,0.00,VWS V14.01,2013-06-03 10:05:00,
2013-06-03 03:11:00,52.2,32.6,29.77,North,0,0.0,0.0,47,0.00,,---,0.00,VWS V14.01,2013-06-03 10:11:00,
2013-06-03 03:16:00,52.0,32.4,29.77,North,0,0.0,0.0,47,0.00,,---,0.00,VWS V14.01,2013-06-03 10:16:00,
2013-06-03 03:22:00,51.6,32.6,29.77,North,0,0.0,0.0,48,0.00,,---,0.00,VWS V14.01,2013-06-03 10:22:00,
2013-06-03 03:27:00,51.8,33.3,29.77,North,0,0.0,0.0,49,0.00,,---,0.00,VWS V14.01,2013-06-03 10:27:00,
2013-06-03 03:33:00,52.0,33.4,29.77,North,0,0.0,0.0,49,0.00,,---,0.00,VWS V14.01,2013-06-03 10:33:00,
2013-06-03 03:39:00,52.0,33.4,29.77,North,0,0.0,0.0,49,0.00,,---,0.00,VWS V14.01,2013-06-03 10:39:00,
2013-06-03 03:44:00,52.2,33.6,29.77,North,0,0.0,0.0,49,0.00,,---,0.00,VWS V14.01,2013-06-03 10:44:00,
2013-06-03 03:50:00,52.2,33.6,29.77,North,0,0.0,0.0,49,0.00,,---,0.00,VWS V14.01,2013-06-03 10:50:00,
2013-06-03 03:55:00,52.2,34.1,29.77,North,0,0.0,0.0,50,0.00,,---,0.00,VWS V14.01,2013-06-03 10:55:00,
2013-06-03 04:01:00,52.2,34.1,29.77,North,0,0.0,0.0,50,0.00,,---,0.00,VWS V14.01,2013-06-03 11:01:00,
2013-06-03 04:06:00,52.2,34.1,29.77,North,0,0.0,0.0,50,0.00,,---,0.00,VWS V14.01,2013-06-03 11:06:00,
2013-06-03 04:12:00,52.0,33.9,29.77,North,0,0.0,0.0,50,0.00,,---,0.00,VWS V14.01,2013-06-03 11:12:00,
2013-06-03 04:17:00,51.8,33.8,29.77,North,0,0.0,0.0,50,0.00,,---,0.00,VWS V14.01,2013-06-03 11:17:00,
2013-06-03 04:23:00,51.6,33.6,29.77,North,0,0.0,0.0,50,0.00,,---,0.00,VWS V14.01,2013-06-03 11:23:00,
2013-06-03 04:29:00,51.6,34.1,29.77,North,0,0.0,0.0,51,0.00,,---,0.00,VWS V14.01,2013-06-03 11:29:00,
2013-06-03 04:35:00,51.6,34.6,29.77,North,0,0.0,0.0,52,0.00,,---,0.00,VWS V14.01,2013-06-03 11:35:00,
2013-06-03 04:41:00,51.6,34.6,29.77,North,0,0.0,0.0,52,0.00,,---,0.00,VWS V14.01,2013-06-03 11:41:00,
2013-06-03 04:47:00,51.6,36.0,29.77,North,0,0.0,0.0,55,0.00,,---,0.00,VWS V14.01,2013-06-03 11:47:00,
2013-06-03 04:53:00,51.6,36.0,29.77,North,0,0.0,0.0,55,0.00,,---,0.00,VWS V14.01,2013-06-03 11:53:00,
2013-06-03 04:58:00,51.6,36.0,29.77,North,0,0.0,0.0,55,0.00,,---,0.00,VWS V14.01,2013-06-03 11:58:00,
2013-06-03 05:03:00,51.6,36.0,29.77,North,0,0.0,0.0,55,0.00,,---,0.00,VWS V14.01,2013-06-03 12:03:00,
2013-06-03 05:09:00,51.6,36.5,29.77,North,0,0.0,0.0,56,0.00,,---,0.00,VWS V14.01,2013-06-03 12:09:00,
2013-06-03 05:14:00,51.4,36.3,29.77,North,0,0.0,0.0,56,0.00,,---,0.00,VWS V14.01,2013-06-03 12:14:00,
2013-06-03 05:20:00,51.4,36.7,29.77,North,0,0.0,0.0,57,0.00,,---,0.00,VWS V14.01,2013-06-03 12:20:00,
2013-06-03 05:25:00,51.4,37.6,29.77,North,0,0.0,0.0,59,0.00,,---,0.00,VWS V14.01,2013-06-03 12:25:00,
2013-06-03 05:31:00,51.4,38.5,29.77,North,0,0.0,0.0,61,0.00,,---,0.00,VWS V14.01,2013-06-03 12:31:00,
2013-06-03 05:36:00,51.4,38.5,29.77,North,0,0.0,0.0,61,0.00,,---,0.00,VWS V14.01,2013-06-03 12:36:00,
2013-06-03 05:41:00,51.4,38.9,29.77,North,0,0.0,0.0,62,0.00,,---,0.00,VWS V14.01,2013-06-03 12:41:00,
2013-06-03 05:47:00,51.4,38.9,29.77,North,0,0.0,0.0,62,0.00,,---,0.00,VWS V14.01,2013-06-03 12:47:00,
2013-06-03 05:53:00,51.4,38.5,29.77,North,0,0.0,0.0,61,0.00,,---,0.00,VWS V14.01,2013-06-03 12:53:00,
2013-06-03 05:58:00,51.3,38.3,29.77,North,0,0.0,0.0,61,0.00,,---,0.00,VWS V14.01,2013-06-03 12:58:00,
2013-06-03 06:03:00,51.3,38.3,29.80,North,0,0.0,0.0,61,0.00,,---,0.00,VWS V14.01,2013-06-03 13:03:00,
2013-06-03 06:08:00,51.3,37.9,29.80,North,0,0.0,0.0,60,0.00,,---,0.00,VWS V14.01,2013-06-03 13:08:00,
2013-06-03 06:13:00,51.3,37.9,29.80,North,0,0.0,0.0,60,0.00,,---,0.00,VWS V14.01,2013-06-03 13:13:00,
2013-06-03 06:19:00,51.4,37.2,29.80,North,0,0.0,0.0,58,0.00,,---,0.00,VWS V14.01,2013-06-03 13:19:00,
2013-06-03 06:24:00,51.6,37.3,29.80,North,0,0.0,0.0,58,0.00,,---,0.00,VWS V14.01,2013-06-03 13:24:00,
2013-06-03 06:30:00,52.3,37.6,29.80,North,0,0.0,0.0,57,0.00,,---,0.00,VWS V14.01,2013-06-03 13:30:00,
2013-06-03 06:36:00,52.9,36.7,29.80,North,0,0.0,0.0,54,0.00,,---,0.00,VWS V14.01,2013-06-03 13:36:00,
2013-06-03 06:41:00,53.1,35.4,29.80,North,0,0.0,0.0,51,0.00,,---,0.00,VWS V14.01,2013-06-03 13:41:00,
2013-06-03 06:47:00,53.1,34.9,29.80,North,0,0.0,0.0,50,0.00,,---,0.00,VWS V14.01,2013-06-03 13:47:00,
2013-06-03 06:52:00,53.1,34.4,29.80,North,0,0.0,0.0,49,0.00,,---,0.00,VWS V14.01,2013-06-03 13:52:00,
2013-06-03 06:57:00,52.9,33.7,29.80,North,0,0.0,0.0,48,0.00,,---,0.00,VWS V14.01,2013-06-03 13:57:00,
2013-06-03 07:02:00,52.9,33.7,29.80,North,0,0.0,0.0,48,0.00,,---,0.00,VWS V14.01,2013-06-03 14:02:00,
2013-06-03 07:08:00,52.9,33.7,29.80,North,0,0.0,0.0,48,0.00,,---,0.00,VWS V14.01,2013-06-03 14:08:00,
2013-06-03 07:13:00,53.1,33.4,29.80,North,0,0.0,0.0,47,0.00,,---,0.00,VWS V14.01,2013-06-03 14:13:00,
2013-06-03 07:19:00,53.1,33.4,29.80,North,0,0.0,0.0,47,0.00,,---,0.00,VWS V14.01,2013-06-03 14:19:00,
2013-06-03 07:24:00,53.2,33.0,29.80,North,0,0.0,0.0,46,0.00,,---,0.00,VWS V14.01,2013-06-03 14:24:00,
2013-06-03 07:30:00,53.2,33.0,29.80,North,0,0.0,0.0,46,0.00,,---,0.00,VWS V14.01,2013-06-03 14:30:00,
2013-06-03 07:35:00,53.4,33.2,29.80,North,0,0.0,0.0,46,0.00,,---,0.00,VWS V14.01,2013-06-03 14:35:00,
2013-06-03 07:40:00,53.6,32.8,29.80,North,0,0.0,0.0,45,0.00,,---,0.00,VWS V14.01,2013-06-03 14:40:00,
2013-06-03 07:46:00,53.8,31.8,29.80,North,0,0.0,0.0,43,0.00,,---,0.00,VWS V14.01,2013-06-03 14:46:00,
2013-06-03 07:52:00,53.6,31.7,29.80,North,0,0.0,0.0,43,0.00,,---,0.00,VWS V14.01,2013-06-03 14:52:00,
2013-06-03 07:58:00,54.0,33.1,29.80,North,0,0.0,0.0,45,0.00,,---,0.00,VWS V14.01,2013-06-03 14:58:00,
2013-06-03 08:04:00,54.7,31.5,29.80,North,0,0.0,0.0,41,0.00,,---,0.00,VWS V14.01,2013-06-03 15:04:00,
2013-06-03 08:09:00,54.5,31.3,29.80,North,0,0.0,0.0,41,0.00,,---,0.00,VWS V14.01,2013-06-03 15:09:00,
2013-06-03 08:15:00,54.5,31.3,29.80,North,0,0.0,0.0,41,0.00,,---,0.00,VWS V14.01,2013-06-03 15:15:00,
2013-06-03 08:20:00,54.7,32.1,29.80,North,0,0.0,0.0,42,0.00,,---,0.00,VWS V14.01,2013-06-03 15:20:00,
2013-06-03 08:26:00,55.0,31.8,29.80,North,0,0.0,0.0,41,0.00,,---,0.00,VWS V14.01,2013-06-03 15:26:00,
2013-06-03 08:31:00,55.2,31.3,29.80,North,0,0.0,0.0,40,0.00,,---,0.00,VWS V14.01,2013-06-03 15:31:00,
2013-06-03 08:36:00,55.8,31.2,29.80,North,0,0.0,0.0,39,0.00,,---,0.00,VWS V14.01,2013-06-03 15:36:00,
2013-06-03 08:42:00,56.7,32.0,29.80,North,0,0.0,0.0,39,0.00,,---,0.00,VWS V14.01,2013-06-03 15:42:00,
2013-06-03 08:47:00,57.0,31.7,29.80,North,0,0.0,0.0,38,0.00,,---,0.00,VWS V14.01,2013-06-03 15:47:00,
2013-06-03 08:52:00,57.0,31.0,29.80,North,0,0.0,0.0,37,0.00,,---,0.00,VWS V14.01,2013-06-03 15:52:00,
2013-06-03 08:58:00,56.8,30.9,29.80,North,0,0.0,0.0,37,0.00,,---,0.00,VWS V14.01,2013-06-03 15:58:00,
2013-06-03 09:04:00,56.5,31.2,29.80,North,0,0.0,0.0,38,0.00,,---,0.00,VWS V14.01,2013-06-03 16:04:00,
2013-06-03 09:09:00,57.6,30.8,29.80,North,0,0.0,0.0,36,0.00,,---,0.00,VWS V14.01,2013-06-03 16:09:00,
2013-06-03 09:15:00,58.8,31.2,29.80,North,0,0.0,0.0,35,0.00,,---,0.00,VWS V14.01,2013-06-03 16:15:00,
2013-06-03 09:20:00,59.2,30.9,29.80,North,0,0.0,0.0,34,0.00,,---,0.00,VWS V14.01,2013-06-03 16:20:00,
2013-06-03 09:26:00,58.3,30.8,29.80,North,0,0.0,0.0,35,0.00,,---,0.00,VWS V14.01,2013-06-03 16:26:00,
2013-06-03 09:32:00,59.2,30.9,29.80,North,0,0.0,0.0,34,0.00,,---,0.00,VWS V14.01,2013-06-03 16:32:00,
2013-06-03 09:37:00,59.7,31.3,29.80,North,0,0.0,0.0,34,0.00,,---,0.00,VWS V14.01,2013-06-03 16:37:00,
2013-06-03 09:42:00,60.1,30.1,29.80,North,0,0.0,0.0,32,0.00,,---,0.00,VWS V14.01,2013-06-03 16:42:00,
2013-06-03 09:48:00,60.1,30.1,29.80,North,0,0.0,0.0,32,0.00,,---,0.00,VWS V14.01,2013-06-03 16:48:00,
2013-06-03 09:53:00,61.0,29.4,29.80,North,0,0.0,0.0,30,0.00,,---,0.00,VWS V14.01,2013-06-03 16:53:00,
2013-06-03 09:58:00,59.5,28.9,29.80,North,0,0.0,0.0,31,0.00,,---,0.00,VWS V14.01,2013-06-03 16:58:00,
2013-06-03 10:03:00,59.7,29.1,29.80,North,0,0.0,0.0,31,0.00,,---,0.00,VWS V14.01,2013-06-03 17:03:00,
2013-06-03 10:08:00,60.1,30.1,29.80,North,0,0.0,0.0,32,0.00,,---,0.00,VWS V14.01,2013-06-03 17:08:00,
2013-06-03 10:14:00,61.3,29.7,29.80,North,0,0.0,0.0,30,0.00,,---,0.00,VWS V14.01,2013-06-03 17:14:00,
2013-06-03 10:19:00,61.7,29.1,29.80,North,0,0.0,0.0,29,0.00,,---,0.00,VWS V14.01,2013-06-03 17:19:00,
2013-06-03 10:25:00,62.4,28.9,29.80,North,0,0.0,0.0,28,0.00,,---,0.00,VWS V14.01,2013-06-03 17:25:00,
2013-06-03 10:30:00,61.9,28.4,29.80,North,0,0.0,0.0,28,0.00,,---,0.00,VWS V14.01,2013-06-03 17:30:00,
2013-06-03 10:36:00,61.9,28.4,29.80,North,0,0.0,0.0,28,0.00,,---,0.00,VWS V14.01,2013-06-03 17:36:00,
2013-06-03 10:42:00,61.9,28.4,29.80,North,0,0.0,0.0,28,0.00,,---,0.00,VWS V14.01,2013-06-03 17:42:00,
2013-06-03 10:48:00,61.9,28.4,29.80,North,0,0.0,0.0,28,0.00,,---,0.00,VWS V14.01,2013-06-03 17:48:00,
2013-06-03 10:54:00,61.7,29.1,29.80,North,0,0.0,0.0,29,0.00,,---,0.00,VWS V14.01,2013-06-03 17:54:00,
2013-06-03 10:59:00,62.2,28.8,29.80,North,0,0.0,0.0,28,0.00,,---,0.00,VWS V14.01,2013-06-03 17:59:00,
2013-06-03 11:05:00,63.1,28.6,29.80,North,0,0.0,0.0,27,0.00,,---,0.00,VWS V14.01,2013-06-03 18:05:00,
2013-06-03 11:11:00,62.4,28.0,29.80,North,0,0.0,0.0,27,0.00,,---,0.00,VWS V14.01,2013-06-03 18:11:00,
2013-06-03 11:16:00,63.3,28.8,29.80,North,0,0.0,0.0,27,0.00,,---,0.00,VWS V14.01,2013-06-03 18:16:00,
2013-06-03 11:21:00,63.9,29.3,29.80,North,0,0.0,0.0,27,0.00,,---,0.00,VWS V14.01,2013-06-03 18:21:00,
2013-06-03 11:27:00,62.8,28.3,29.80,North,0,0.0,0.0,27,0.00,,---,0.00,VWS V14.01,2013-06-03 18:27:00,
2013-06-03 11:33:00,63.1,28.6,29.80,North,0,0.0,0.0,27,0.00,,---,0.00,VWS V14.01,2013-06-03 18:33:00,
2013-06-03 11:38:00,63.9,28.3,29.80,North,0,0.0,0.0,26,0.00,,---,0.00,VWS V14.01,2013-06-03 18:38:00,
2013-06-03 11:44:00,63.0,28.5,29.80,North,0,0.0,0.0,27,0.00,,---,0.00,VWS V14.01,2013-06-03 18:44:00,
2013-06-03 11:49:00,63.7,29.1,29.80,North,0,0.0,0.0,27,0.00,,---,0.00,VWS V14.01,2013-06-03 18:49:00,
2013-06-03 11:54:00,63.7,29.1,29.80,North,0,0.0,0.0,27,0.00,,---,0.00,VWS V14.01,2013-06-03 18:54:00,
2013-06-03 11:59:00,63.9,28.3,29.80,North,0,0.0,0.0,26,0.00,,---,0.00,VWS V14.01,2013-06-03 18:59:00,
2013-06-03 12:04:00,63.9,28.3,29.80,North,0,0.0,0.0,26,0.00,,---,0.00,VWS V14.01,2013-06-03 19:04:00,
2013-06-03 12:10:00,63.9,28.3,29.80,North,0,0.0,0.0,26,0.00,,---,0.00,VWS V14.01,2013-06-03 19:10:00,
2013-06-03 12:15:00,64.4,28.8,29.80,North,0,0.0,0.0,26,0.00,,---,0.00,VWS V14.01,2013-06-03 19:15:00,
2013-06-03 12:22:00,64.4,28.8,29.80,North,0,0.0,0.0,26,0.00,,---,0.00,VWS V14.01,2013-06-03 19:22:00,
2013-06-03 12:27:00,65.1,28.5,29.80,North,0,0.0,0.0,25,0.00,,---,0.00,VWS V14.01,2013-06-03 19:27:00,
2013-06-03 12:32:00,65.3,28.6,29.80,North,0,0.0,0.0,25,0.00,,---,0.00,VWS V14.01,2013-06-03 19:32:00,
2013-06-03 12:38:00,65.1,28.5,29.80,North,0,0.0,0.0,25,0.00,,---,0.00,VWS V14.01,2013-06-03 19:38:00,
2013-06-03 12:43:00,66.4,28.5,29.80,North,0,0.0,0.0,24,0.00,,---,0.00,VWS V14.01,2013-06-03 19:43:00,
2013-06-03 12:49:00,66.2,28.4,29.77,North,0,0.0,0.0,24,0.00,,---,0.00,VWS V14.01,2013-06-03 19:49:00,
2013-06-03 12:54:00,66.2,28.4,29.77,North,0,0.0,0.0,24,0.00,,---,0.00,VWS V14.01,2013-06-03 19:54:00,
2013-06-03 13:00:00,66.6,28.7,29.80,North,0,0.0,0.0,24,0.00,,---,0.00,VWS V14.01,2013-06-03 20:00:00,
2013-06-03 13:05:00,66.6,28.7,29.80,North,0,0.0,0.0,24,0.00,,---,0.00,VWS V14.01,2013-06-03 20:05:00,
2013-06-03 13:10:00,66.6,28.7,29.80,North,0,0.0,0.0,24,0.00,,---,0.00,VWS V14.01,2013-06-03 20:10:00,
2013-06-03 13:15:00,66.6,28.7,29.80,North,0,0.0,0.0,24,0.00,,---,0.00,VWS V14.01,2013-06-03 20:15:00,
2013-06-03 13:21:00,66.2,28.4,29.80,North,0,0.0,0.0,24,0.00,,---,0.00,VWS V14.01,2013-06-03 20:21:00,
2013-06-03 13:27:00,66.9,29.0,29.80,North,0,0.0,0.0,24,0.00,,---,0.00,VWS V14.01,2013-06-03 20:27:00,
2013-06-03 13:33:00,66.2,28.4,29.80,North,0,0.0,0.0,24,0.00,,---,0.00,VWS V14.01,2013-06-03 20:33:00,
2013-06-03 13:39:00,66.7,28.8,29.80,North,0,0.0,0.0,24,0.00,,---,0.00,VWS V14.01,2013-06-03 20:39:00,
2013-06-03 13:44:00,66.6,28.7,29.80,North,0,0.0,0.0,24,0.00,,---,0.00,VWS V14.01,2013-06-03 20:44:00,
2013-06-03 13:50:00,66.9,29.0,29.77,North,0,0.0,0.0,24,0.00,,---,0.00,VWS V14.01,2013-06-03 20:50:00,
2013-06-03 13:55:00,66.9,29.0,29.77,North,0,0.0,0.0,24,0.00,,---,0.00,VWS V14.01,2013-06-03 20:55:00,
2013-06-03 14:00:00,67.5,29.4,29.80,North,0,0.0,0.0,24,0.00,,---,0.00,VWS V14.01,2013-06-03 21:00:00,
2013-06-03 14:06:00,67.5,29.4,29.80,North,0,0.0,0.0,24,0.00,,---,0.00,VWS V14.01,2013-06-03 21:06:00,
2013-06-03 14:12:00,67.6,29.6,29.80,North,0,0.0,0.0,24,0.00,,---,0.00,VWS V14.01,2013-06-03 21:12:00,
2013-06-03 14:17:00,67.8,29.7,29.77,North,0,0.0,0.0,24,0.00,,---,0.00,VWS V14.01,2013-06-03 21:17:00,
2013-06-03 14:23:00,67.8,29.7,29.77,North,0,0.0,0.0,24,0.00,,---,0.00,VWS V14.01,2013-06-03 21:23:00,
2013-06-03 14:28:00,68.2,29.0,29.77,North,0,0.0,0.0,23,0.00,,---,0.00,VWS V14.01,2013-06-03 21:28:00,
2013-06-03 14:33:00,68.9,29.6,29.77,North,0,0.0,0.0,23,0.00,,---,0.00,VWS V14.01,2013-06-03 21:33:00,
2013-06-03 14:38:00,68.4,29.1,29.77,North,0,0.0,0.0,23,0.00,,---,0.00,VWS V14.01,2013-06-03 21:38:00,
2013-06-03 14:43:00,68.7,29.5,29.77,North,0,0.0,0.0,23,0.00,,---,0.00,VWS V14.01,2013-06-03 21:43:00,
2013-06-03 14:49:00,69.4,30.1,29.77,North,0,0.0,0.0,23,0.00,,---,0.00,VWS V14.01,2013-06-03 21:49:00,
2013-06-03 14:55:00,69.8,30.4,29.77,North,0,0.0,0.0,23,0.00,,---,0.00,VWS V14.01,2013-06-03 21:55:00,
2013-06-03 15:01:00,69.8,29.3,29.77,North,0,0.0,0.0,22,0.00,,---,0.00,VWS V14.01,2013-06-03 22:01:00,
2013-06-03 15:06:00,69.8,30.4,29.77,North,0,0.0,0.0,23,0.00,,---,0.00,VWS V14.01,2013-06-03 22:06:00,
2013-06-03 15:11:00,70.0,29.4,29.77,North,0,0.0,0.0,22,0.00,,---,0.00,VWS V14.01,2013-06-03 22:11:00,
2013-06-03 15:16:00,70.0,29.4,29.77,North,0,0.0,0.0,22,0.00,,---,0.00,VWS V14.01,2013-06-03 22:16:00,
2013-06-03 15:22:00,70.2,29.6,29.77,North,0,0.0,0.0,22,0.00,,---,0.00,VWS V14.01,2013-06-03 22:22:00,
2013-06-03 15:28:00,70.5,29.9,29.77,North,0,0.0,0.0,22,0.00,,---,0.00,VWS V14.01,2013-06-03 22:28:00,
2013-06-03 15:33:00,70.9,30.2,29.77,North,0,0.0,0.0,22,0.00,,---,0.00,VWS V14.01,2013-06-03 22:33:00,
2013-06-03 15:39:00,71.1,30.3,29.77,North,0,0.0,0.0,22,0.00,,---,0.00,VWS V14.01,2013-06-03 22:39:00,
2013-06-03 15:44:00,71.6,30.8,29.77,North,0,0.0,0.0,22,0.00,,---,0.00,VWS V14.01,2013-06-03 22:44:00,
2013-06-03 15:49:00,72.3,31.4,29.77,North,0,0.0,0.0,22,0.00,,---,0.00,VWS V14.01,2013-06-03 22:49:00,
2013-06-03 15:54:00,71.8,30.9,29.77,North,0,0.0,0.0,22,0.00,,---,0.00,VWS V14.01,2013-06-03 22:54:00,
2013-06-03 15:59:00,72.0,31.1,29.77,North,0,0.0,0.0,22,0.00,,---,0.00,VWS V14.01,2013-06-03 22:59:00,
2013-06-03 16:05:00,72.0,29.9,29.77,North,0,0.0,0.0,21,0.00,,---,0.00,VWS V14.01,2013-06-03 23:05:00,
2013-06-03 16:11:00,71.6,29.6,29.77,North,0,0.0,0.0,21,0.00,,---,0.00,VWS V14.01,2013-06-03 23:11:00,
2013-06-03 16:16:00,71.1,30.3,29.77,North,0,0.0,0.0,22,0.00,,---,0.00,VWS V14.01,2013-06-03 23:16:00,
2013-06-03 16:22:00,71.2,30.5,29.77,North,0,0.0,0.0,22,0.00,,---,0.00,VWS V14.01,2013-06-03 23:22:00,
2013-06-03 16:28:00,71.4,30.6,29.77,North,0,0.0,0.0,22,0.00,,---,0.00,VWS V14.01,2013-06-03 23:28:00,
2013-06-03 16:34:00,72.3,30.2,29.74,North,0,0.0,0.0,21,0.00,,---,0.00,VWS V14.01,2013-06-03 23:34:00,
2013-06-03 16:39:00,72.0,29.9,29.74,North,0,0.0,0.0,21,0.00,,---,0.00,VWS V14.01,2013-06-03 23:39:00,
2013-06-03 16:44:00,72.0,29.9,29.74,North,0,0.0,0.0,21,0.00,,---,0.00,VWS V14.01,2013-06-03 23:44:00,
2013-06-03 16:49:00,72.0,29.9,29.74,North,0,0.0,0.0,21,0.00,,---,0.00,VWS V14.01,2013-06-03 23:49:00,
2013-06-03 16:55:00,71.8,29.8,29.74,North,0,0.0,0.0,21,0.00,,---,0.00,VWS V14.01,2013-06-03 23:55:00,
2013-06-03 17:00:00,71.6,29.6,29.74,North,0,0.0,0.0,21,0.00,,---,0.00,VWS V14.01,2013-06-04 00:00:00,
2013-06-03 17:05:00,72.0,29.9,29.74,North,0,0.0,0.0,21,0.00,,---,0.00,VWS V14.01,2013-06-04 00:05:00,
2013-06-03 17:10:00,72.0,29.9,29.74,North,0,0.0,0.0,21,0.00,,---,0.00,VWS V14.01,2013-06-04 00:10:00,
2013-06-03 17:16:00,72.1,30.1,29.74,North,0,0.0,0.0,21,0.00,,---,0.00,VWS V14.01,2013-06-04 00:16:00,
2013-06-03 17:21:00,72.7,30.5,29.74,North,0,0.0,0.0,21,0.00,,---,0.00,VWS V14.01,2013-06-04 00:21:00,
2013-06-03 17:27:00,72.9,28.2,29.74,North,0,0.0,0.0,19,0.00,,---,0.00,VWS V14.01,2013-06-04 00:27:00,
2013-06-03 17:32:00,73.0,28.4,29.74,North,0,0.0,0.0,19,0.00,,---,0.00,VWS V14.01,2013-06-04 00:32:00,
2013-06-03 17:38:00,73.0,28.4,29.74,North,0,0.0,0.0,19,0.00,,---,0.00,VWS V14.01,2013-06-04 00:38:00,
2013-06-03 17:43:00,72.7,28.1,29.74,North,0,0.0,0.0,19,0.00,,---,0.00,VWS V14.01,2013-06-04 00:43:00,
2013-06-03 17:48:00,72.9,28.2,29.74,North,0,0.0,0.0,19,0.00,,---,0.00,VWS V14.01,2013-06-04 00:48:00,
2013-06-03 17:53:00,72.1,27.6,29.74,North,0,0.0,0.0,19,0.00,,---,0.00,VWS V14.01,2013-06-04 00:53:00,
2013-06-03 17:58:00,72.0,27.5,29.74,North,0,0.0,0.0,19,0.00,,---,0.00,VWS V14.01,2013-06-04 00:58:00,
2013-06-03 18:04:00,71.4,27.0,29.74,North,0,0.0,0.0,19,0.00,,---,0.00,VWS V14.01,2013-06-04 01:04:00,
2013-06-03 18:09:00,71.8,27.3,29.74,North,0,0.0,0.0,19,0.00,,---,0.00,VWS V14.01,2013-06-04 01:09:00,
2013-06-03 18:15:00,72.5,27.9,29.74,North,0,0.0,0.0,19,0.00,,---,0.00,VWS V14.01,2013-06-04 01:15:00,
2013-06-03 18:21:00,71.8,27.3,29.74,North,0,0.0,0.0,19,0.00,,---,0.00,VWS V14.01,2013-06-04 01:21:00,
2013-06-03 18:27:00,72.0,27.5,29.74,North,0,0.0,0.0,19,0.00,,---,0.00,VWS V14.01,2013-06-04 01:27:00,
2013-06-03 18:33:00,71.6,27.2,29.74,North,0,0.0,0.0,19,0.00,,---,0.00,VWS V14.01,2013-06-04 01:33:00,
2013-06-03 18:38:00,71.4,27.0,29.74,North,0,0.0,0.0,19,0.00,,---,0.00,VWS V14.01,2013-06-04 01:38:00,
2013-06-03 18:44:00,70.7,26.5,29.74,North,0,0.0,0.0,19,0.00,,---,0.00,VWS V14.01,2013-06-04 01:44:00,
2013-06-03 18:50:00,70.9,26.6,29.74,North,0,0.0,0.0,19,0.00,,---,0.00,VWS V14.01,2013-06-04 01:50:00,
2013-06-03 18:56:00,71.1,26.8,29.74,North,0,0.0,0.0,19,0.00,,---,0.00,VWS V14.01,2013-06-04 01:56:00,
2013-06-03 19:02:00,70.5,29.9,29.74,North,0,0.0,0.0,22,0.00,,---,0.00,VWS V14.01,2013-06-04 02:02:00,
2013-06-03 19:07:00,70.5,29.9,29.74,North,0,0.0,0.0,22,0.00,,---,0.00,VWS V14.01,2013-06-04 02:07:00,
2013-06-03 19:13:00,70.3,29.7,29.74,North,0,0.0,0.0,22,0.00,,---,0.00,VWS V14.01,2013-06-04 02:13:00,
2013-06-03 19:18:00,69.8,29.3,29.74,North,0,0.0,0.0,22,0.00,,---,0.00,VWS V14.01,2013-06-04 02:18:00,
2013-06-03 19:24:00,69.4,29.0,29.74,North,0,0.0,0.0,22,0.00,,---,0.00,VWS V14.01,2013-06-04 02:24:00,
2013-06-03 19:30:00,69.3,28.8,29.74,North,0,0.0,0.0,22,0.00,,---,0.00,VWS V14.01,2013-06-04 02:30:00,
2013-06-03 19:35:00,69.1,28.7,29.74,North,0,0.0,0.0,22,0.00,,---,0.00,VWS V14.01,2013-06-04 02:35:00,
2013-06-03 19:41:00,69.1,28.7,29.74,North,0,0.0,0.0,22,0.00,,---,0.00,VWS V14.01,2013-06-04 02:41:00,
2013-06-03 19:46:00,68.5,28.2,29.74,North,0,0.0,0.0,22,0.00,,---,0.00,VWS V14.01,2013-06-04 02:46:00,
2013-06-03 19:52:00,68.0,27.8,29.74,North,0,0.0,0.0,22,0.00,,---,0.00,VWS V14.01,2013-06-04 02:52:00,
2013-06-03 19:58:00,67.6,28.5,29.74,North,0,0.0,0.0,23,0.00,,---,0.00,VWS V14.01,2013-06-04 02:58:00,
2013-06-03 20:03:00,67.3,28.2,29.77,North,0,0.0,0.0,23,0.00,,---,0.00,VWS V14.01,2013-06-04 03:03:00,
2013-06-03 20:08:00,67.1,28.1,29.77,North,0,0.0,0.0,23,0.00,,---,0.00,VWS V14.01,2013-06-04 03:08:00,
2013-06-03 20:14:00,66.7,27.8,29.77,North,0,0.0,0.0,23,0.00,,---,0.00,VWS V14.01,2013-06-04 03:14:00,
2013-06-03 20:20:00,66.6,27.6,29.77,North,0,0.0,0.0,23,0.00,,---,0.00,VWS V14.01,2013-06-04 03:20:00,
2013-06-03 20:26:00,66.2,28.4,29.77,North,0,0.0,0.0,24,0.00,,---,0.00,VWS V14.01,2013-06-04 03:26:00,
2013-06-03 20:32:00,65.8,28.1,29.77,North,0,0.0,0.0,24,0.00,,---,0.00,VWS V14.01,2013-06-04 03:32:00,
2013-06-03 20:37:00,65.7,28.9,29.77,North,0,0.0,0.0,25,0.00,,---,0.00,VWS V14.01,2013-06-04 03:37:00,
2013-06-03 20:43:00,65.3,28.6,29.77,North,0,0.0,0.0,25,0.00,,---,0.00,VWS V14.01,2013-06-04 03:43:00,
2013-06-03 20:49:00,64.9,28.3,29.77,North,0,0.0,0.0,25,0.00,,---,0.00,VWS V14.01,2013-06-04 03:49:00,
2013-06-03 20:54:00,64.6,29.0,29.77,North,0,0.0,0.0,26,0.00,,---,0.00,VWS V14.01,2013-06-04 03:54:00,
2013-06-03 20:59:00,64.2,28.6,29.77,North,0,0.0,0.0,26,0.00,,---,0.00,VWS V14.01,2013-06-04 03:59:00,
2013-06-03 21:01:00,64.2,28.6,29.77,North,0,0.0,0.0,26,0.00,,---,0.00,VWS V14.01,2013-06-04 04:01:00,
2013-06-03 21:02:00,64.0,28.5,29.77,North,0,0.0,0.0,26,0.00,,---,0.00,VWS V14.01,2013-06-04 04:02:00,
2013-06-03 21:03:00,64.0,29.4,29.77,North,0,0.0,0.0,27,0.00,,---,0.00,VWS V14.01,2013-06-04 04:03:00,
2013-06-03 21:07:00,63.7,29.1,29.77,North,0,0.0,0.0,27,0.00,,---,0.00,VWS V14.01,2013-06-04 04:07:00,
2013-06-03 21:08:00,63.7,29.1,29.77,North,0,0.0,0.0,27,0.00,,---,0.00,VWS V14.01,2013-06-04 04:08:00,
2013-06-03 21:14:00,63.3,28.8,29.77,North,0,0.0,0.0,27,0.00,,---,0.00,VWS V14.01,2013-06-04 04:14:00,
2013-06-03 21:19:00,63.1,29.5,29.77,North,0,0.0,0.0,28,0.00,,---,0.00,VWS V14.01,2013-06-04 04:19:00,
2013-06-03 21:24:00,62.8,29.2,29.77,North,0,0.0,0.0,28,0.00,,---,0.00,VWS V14.01,2013-06-04 04:24:00,
2013-06-03 21:30:00,62.6,29.1,29.77,North,0,0.0,0.0,28,0.00,,---,0.00,VWS V14.01,2013-06-04 04:30:00,
2013-06-03 21:36:00,62.4,29.8,29.77,North,0,0.0,0.0,29,0.00,,---,0.00,VWS V14.01,2013-06-04 04:36:00,
2013-06-03 21:41:00,62.2,29.6,29.77,North,0,0.0,0.0,29,0.00,,---,0.00,VWS V14.01,2013-06-04 04:41:00,
2013-06-03 21:47:00,62.1,30.3,29.77,North,0,0.0,0.0,30,0.00,,---,0.00,VWS V14.01,2013-06-04 04:47:00,
2013-06-03 21:53:00,61.9,30.1,29.77,North,0,0.0,0.0,30,0.00,,---,0.00,VWS V14.01,2013-06-04 04:53:00,
2013-06-03 21:59:00,61.7,30.0,29.77,North,0,0.0,0.0,30,0.00,,---,0.00,VWS V14.01,2013-06-04 04:59:00,
2013-06-03 22:05:00,61.7,30.8,29.77,North,0,0.0,0.0,31,0.00,,---,0.00,VWS V14.01,2013-06-04 05:05:00,
2013-06-03 22:10:00,61.5,30.6,29.77,North,0,0.0,0.0,31,0.00,,---,0.00,VWS V14.01,2013-06-04 05:10:00,
2013-06-03 22:16:00,61.3,30.5,29.77,North,0,0.0,0.0,31,0.00,,---,0.00,VWS V14.01,2013-06-04 05:16:00,
2013-06-03 22:21:00,61.2,30.3,29.77,North,0,0.0,0.0,31,0.00,,---,0.00,VWS V14.01,2013-06-04 05:21:00,
2013-06-03 22:27:00,61.2,31.1,29.77,North,0,0.0,0.0,32,0.00,,---,0.00,VWS V14.01,2013-06-04 05:27:00,
2013-06-03 22:32:00,61.0,30.9,29.77,North,0,0.0,0.0,32,0.00,,---,0.00,VWS V14.01,2013-06-04 05:32:00,
2013-06-03 22:38:00,60.8,31.5,29.77,North,0,0.0,0.0,33,0.00,,---,0.00,VWS V14.01,2013-06-04 05:38:00,
2013-06-03 22:43:00,60.6,32.1,29.77,North,0,0.0,0.0,34,0.00,,---,0.00,VWS V14.01,2013-06-04 05:43:00,
2013-06-03 22:49:00,60.4,32.0,29.77,North,0,0.0,0.0,34,0.00,,---,0.00,VWS V14.01,2013-06-04 05:49:00,
2013-06-03 22:54:00,60.1,31.6,29.77,North,0,0.0,0.0,34,0.00,,---,0.00,VWS V14.01,2013-06-04 05:54:00,
2013-06-03 22:59:00,59.7,31.3,29.77,North,0,0.0,0.0,34,0.00,,---,0.00,VWS V14.01,2013-06-04 05:59:00,
2013-06-03 23:05:00,59.4,31.0,29.77,North,0,0.0,0.0,34,0.00,,---,0.00,VWS V14.01,2013-06-04 06:05:00,
2013-06-03 23:11:00,59.0,30.7,29.77,North,0,0.0,0.0,34,0.00,,---,0.00,VWS V14.01,2013-06-04 06:11:00,
2013-06-03 23:16:00,58.8,31.2,29.77,North,0,0.0,0.0,35,0.00,,---,0.00,VWS V14.01,2013-06-04 06:16:00,
2013-06-03 23:22:00,58.8,31.2,29.77,North,0,0.0,0.0,35,0.00,,---,0.00,VWS V14.01,2013-06-04 06:22:00,
2013-06-03 23:27:00,58.5,30.9,29.77,North,0,0.0,0.0,35,0.00,,---,0.00,VWS V14.01,2013-06-04 06:27:00,
2013-06-03 23:32:00,58.3,30.8,29.77,North,0,0.0,0.0,35,0.00,,---,0.00,VWS V14.01,2013-06-04 06:32:00,
2013-06-03 23:37:00,58.1,30.6,29.77,North,0,0.0,0.0,35,0.00,,---,0.00,VWS V14.01,2013-06-04 06:37:00,
2013-06-03 23:42:00,57.9,31.1,29.77,North,0,0.0,0.0,36,0.00,,---,0.00,VWS V14.01,2013-06-04 06:42:00,
2013-06-03 23:47:00,57.9,31.1,29.77,North,0,0.0,0.0,36,0.00,,---,0.00,VWS V14.01,2013-06-04 06:47:00,
2013-06-03 23:53:00,57.7,31.0,29.77,North,0,0.0,0.0,36,0.00,,---,0.00,VWS V14.01,2013-06-04 06:53:00,
2013-06-03 23:59:00,57.6,30.8,29.77,North,0,0.0,0.0,36,0.00,,---,0.00,VWS V14.01,2013-06-04 06:59:00,